createdAt,value
2023-01-23T00:01:41.447Z,4.00
2023-01-23T00:04:11.604Z,3.00
2023-01-23T00:06:41.295Z,3.00
2023-01-23T00:09:10.389Z,3.00
2023-01-23T00:11:39.063Z,5.00
2023-01-23T00:14:07.443Z,5.00
2023-01-23T00:16:36.541Z,4.00
2023-01-23T00:19:05.021Z,3.00
2023-01-23T00:21:33.501Z,4.00
2023-01-23T00:24:02.209Z,3.00
2023-01-23T00:26:33.191Z,2.00
2023-01-23T00:29:02.637Z,4.00
2023-01-23T00:31:33.934Z,4.00
2023-01-23T00:34:06.960Z,5.00
2023-01-23T00:36:37.826Z,4.00
2023-01-23T00:39:08.994Z,4.50
2023-01-23T00:41:37.374Z,3.00
2023-01-23T00:44:05.858Z,4.00
2023-01-23T00:46:35.277Z,5.00
2023-01-23T00:49:04.107Z,4.00
2023-01-23T00:51:33.029Z,5.00
2023-01-23T00:54:02.044Z,3.00
2023-01-23T00:56:30.537Z,4.00
2023-01-23T00:58:59.072Z,5.00
2023-01-23T01:01:29.334Z,5.00
2023-01-23T01:03:58.478Z,4.00
2023-01-23T01:06:27.587Z,2.50
2023-01-23T01:08:57.801Z,3.00
2023-01-23T01:11:27.100Z,3.00
2023-01-23T01:13:55.483Z,3.00
2023-01-23T01:16:24.720Z,3.50
2023-01-23T01:18:53.366Z,3.00
2023-01-23T01:21:21.954Z,3.00
2023-01-23T01:23:50.429Z,3.00
2023-01-23T01:26:19.119Z,4.00
2023-01-23T01:28:48.627Z,2.00
2023-01-23T01:31:17.503Z,3.67
2023-01-23T01:33:46.197Z,4.00
2023-01-23T01:36:16.643Z,3.00
2023-01-23T01:38:45.312Z,3.00
2023-01-23T01:41:14.673Z,2.00
2023-01-23T01:43:43.425Z,3.00
2023-01-23T01:46:29.319Z,2.00
2023-01-23T01:49:16.332Z,3.00
2023-01-23T01:51:50.827Z,3.00
2023-01-23T01:54:39.494Z,2.00
2023-01-23T01:57:19.435Z,3.00
2023-01-23T01:59:50.895Z,3.00
2023-01-23T02:02:26.781Z,1.00
2023-01-23T02:07:30.692Z,1.50
2023-01-23T02:09:59.048Z,2.00
2023-01-23T02:12:28.453Z,2.00
2023-01-23T02:14:57.035Z,2.00
2023-01-23T02:17:25.556Z,1.67
2023-01-23T02:20:02.486Z,3.00
2023-01-23T02:22:49.752Z,2.00
2023-01-23T02:25:46.371Z,3.00
2023-01-23T02:28:17.099Z,2.00
2023-01-23T02:30:48.352Z,3.00
2023-01-23T02:33:22.669Z,1.67
2023-01-23T02:35:51.245Z,2.00
2023-01-23T02:38:23.094Z,2.50
2023-01-23T02:40:53.094Z,2.00
2023-01-23T02:43:25.320Z,2.50
2023-01-23T02:45:54.628Z,3.00
2023-01-23T02:48:22.975Z,2.00
2023-01-23T02:50:51.428Z,1.33
2023-01-23T02:53:20.040Z,2.00
2023-01-23T02:55:48.547Z,3.00
2023-01-23T02:58:35.331Z,2.00
2023-01-23T03:01:04.578Z,2.00
2023-01-23T03:03:32.938Z,1.00
2023-01-23T03:06:04.363Z,1.67
2023-01-23T03:08:37.086Z,2.00
2023-01-23T03:11:05.842Z,1.50
2023-01-23T03:13:34.309Z,2.00
2023-01-23T03:16:02.732Z,2.00
2023-01-23T03:18:31.582Z,1.33
2023-01-23T03:21:04.879Z,2.00
2023-01-23T03:23:33.765Z,2.00
2023-01-23T03:26:02.556Z,1.67
2023-01-23T03:28:49.475Z,1.00
2023-01-23T03:31:18.081Z,1.00
2023-01-23T03:33:46.750Z,2.00
2023-01-23T03:36:15.540Z,2.00
2023-01-23T03:39:03.777Z,1.00
2023-01-23T03:41:32.259Z,2.00
2023-01-23T03:44:00.649Z,1.00
2023-01-23T03:46:29.054Z,2.00
2023-01-23T03:48:57.503Z,1.00
2023-01-23T03:51:25.912Z,3.00
2023-01-23T03:53:54.389Z,1.00
2023-01-23T03:56:22.842Z,1.00
2023-01-23T03:58:51.221Z,1.00
2023-01-23T04:01:19.861Z,2.00
2023-01-23T04:03:48.184Z,1.00
2023-01-23T04:06:17.483Z,2.00
2023-01-23T04:08:45.964Z,2.00
2023-01-23T04:11:14.957Z,2.00
2023-01-23T04:13:43.545Z,1.00
2023-01-23T04:16:12.048Z,2.00
2023-01-23T04:18:40.621Z,2.00
2023-01-23T04:21:09.194Z,2.00
2023-01-23T04:23:37.794Z,2.00
2023-01-23T04:26:06.465Z,1.50
2023-01-23T04:28:34.843Z,2.00
2023-01-23T04:31:03.426Z,1.00
2023-01-23T04:33:32.025Z,2.00
2023-01-23T04:36:03.660Z,1.00
2023-01-23T04:38:33.146Z,0.00
2023-01-23T04:41:01.456Z,2.00
2023-01-23T04:43:30.038Z,1.00
2023-01-23T04:45:58.681Z,1.00
2023-01-23T04:48:27.219Z,1.00
2023-01-23T04:50:55.720Z,1.00
2023-01-23T04:53:24.281Z,1.00
2023-01-23T04:55:52.752Z,1.00
2023-01-23T04:58:21.140Z,1.50
2023-01-23T05:00:49.919Z,1.00
2023-01-23T05:03:18.516Z,1.00
2023-01-23T05:05:48.315Z,1.00
2023-01-23T05:08:16.601Z,2.00
2023-01-23T05:10:45.183Z,1.00
2023-01-23T05:13:13.462Z,0.50
2023-01-23T05:15:41.967Z,1.00
2023-01-23T05:18:10.523Z,1.00
2023-01-23T05:20:39.102Z,1.50
2023-01-23T05:23:07.501Z,1.00
2023-01-23T05:25:36.169Z,1.00
2023-01-23T05:28:04.972Z,2.00
2023-01-23T05:30:33.810Z,0.75
2023-01-23T05:33:02.534Z,1.00
2023-01-23T05:35:30.816Z,0.50
2023-01-23T05:37:59.300Z,1.00
2023-01-23T05:40:27.711Z,2.00
2023-01-23T05:42:56.155Z,0.00
2023-01-23T05:45:24.643Z,1.00
2023-01-23T05:47:53.155Z,1.00
2023-01-23T05:50:24.262Z,1.00
2023-01-23T05:52:52.652Z,1.67
2023-01-23T05:55:21.131Z,1.00
2023-01-23T05:57:49.507Z,1.67
2023-01-23T06:00:19.087Z,2.00
2023-01-23T06:02:47.882Z,1.00
2023-01-23T06:05:16.694Z,2.00
2023-01-23T06:07:45.071Z,3.00
2023-01-23T06:10:13.807Z,3.00
2023-01-23T06:12:42.341Z,3.00
2023-01-23T06:15:11.554Z,3.00
2023-01-23T06:17:39.879Z,5.00
2023-01-23T06:20:09.525Z,6.00
2023-01-23T06:22:37.816Z,9.67
2023-01-23T06:25:07.029Z,13.00
2023-01-23T06:27:35.591Z,18.50
2023-01-23T06:30:05.102Z,25.00
2023-01-23T06:32:33.478Z,28.00
2023-01-23T06:35:02.775Z,26.50
2023-01-23T06:37:31.161Z,21.00
2023-01-23T06:39:59.734Z,24.00
2023-01-23T06:42:28.217Z,22.00
2023-01-23T06:44:56.596Z,22.00
2023-01-23T06:47:25.078Z,21.00
2023-01-23T06:49:53.565Z,20.00
2023-01-23T06:52:22.247Z,19.00
2023-01-23T06:54:50.844Z,21.00
2023-01-23T06:57:19.226Z,16.50
2023-01-23T06:59:47.648Z,18.00
2023-01-23T07:02:16.178Z,16.00
2023-01-23T07:04:44.762Z,18.50
2023-01-23T07:07:13.756Z,16.50
2023-01-23T07:09:42.967Z,18.00
2023-01-23T07:12:11.636Z,17.00
2023-01-23T07:14:40.022Z,13.00
2023-01-23T07:17:08.712Z,18.00
2023-01-23T07:19:37.082Z,16.00
2023-01-23T07:22:05.719Z,16.00
2023-01-23T07:24:34.666Z,16.67
2023-01-23T07:27:03.060Z,15.50
2023-01-23T07:29:31.622Z,16.00
2023-01-23T07:32:01.442Z,15.50
2023-01-23T07:34:29.736Z,13.50
2023-01-23T07:36:58.193Z,14.00
2023-01-23T07:39:27.089Z,15.00
2023-01-23T07:41:55.573Z,15.00
2023-01-23T07:44:24.052Z,10.50
2023-01-23T07:46:52.624Z,12.50
2023-01-23T07:49:21.443Z,13.00
2023-01-23T07:51:49.700Z,13.67
2023-01-23T07:54:18.290Z,14.00
2023-01-23T07:56:50.250Z,6.00
2023-01-23T07:59:18.761Z,15.50
2023-01-23T08:01:49.182Z,11.67
2023-01-23T08:04:17.742Z,14.00
2023-01-23T08:06:46.324Z,13.50
2023-01-23T08:09:14.908Z,11.00
2023-01-23T08:11:43.388Z,12.50
2023-01-23T08:14:12.501Z,11.50
2023-01-23T08:16:40.903Z,11.00
2023-01-23T08:19:09.758Z,12.00
2023-01-23T08:21:38.040Z,12.00
2023-01-23T08:24:07.136Z,11.50
2023-01-23T08:26:35.513Z,11.33
2023-01-23T08:29:04.708Z,12.00
2023-01-23T08:31:33.248Z,11.00
2023-01-23T08:34:01.783Z,11.00
2023-01-23T08:36:30.281Z,12.00
2023-01-23T08:39:00.173Z,8.00
2023-01-23T08:41:28.552Z,11.75
2023-01-23T08:44:01.809Z,10.50
2023-01-23T08:46:30.238Z,11.00
2023-01-23T08:48:58.708Z,9.00
2023-01-23T08:51:28.200Z,11.50
2023-01-23T08:53:57.058Z,11.00
2023-01-23T08:56:25.995Z,9.00
2023-01-23T08:58:54.372Z,9.00
2023-01-23T09:01:25.424Z,9.67
2023-01-23T09:03:54.103Z,8.00
2023-01-23T09:06:23.619Z,9.00
2023-01-23T09:08:51.939Z,8.50
2023-01-23T09:11:20.977Z,9.00
2023-01-23T09:13:49.944Z,7.00
2023-01-23T09:16:19.374Z,10.00
2023-01-23T09:18:48.471Z,9.00
2023-01-23T09:21:17.772Z,8.00
2023-01-23T09:23:46.574Z,9.50
2023-01-23T09:26:16.368Z,9.00
2023-01-23T09:28:45.576Z,8.00
2023-01-23T09:31:14.570Z,10.00
2023-01-23T09:33:43.165Z,7.00
2023-01-23T09:36:12.264Z,9.25
2023-01-23T09:38:40.526Z,10.00
2023-01-23T09:41:21.098Z,8.00
2023-01-23T09:44:05.659Z,7.00
2023-01-23T09:46:45.805Z,8.00
2023-01-23T09:49:38.871Z,8.00
2023-01-23T09:52:14.413Z,8.75
2023-01-23T09:54:50.676Z,8.00
2023-01-23T09:57:24.906Z,8.00
2023-01-23T10:00:22.696Z,6.00
2023-01-23T10:02:53.727Z,7.00
2023-01-23T10:05:30.271Z,8.00
2023-01-23T10:08:15.885Z,7.00
2023-01-23T10:11:23.049Z,7.33
2023-01-23T10:14:17.226Z,6.00
2023-01-23T10:16:58.837Z,4.00
2023-01-23T10:19:34.783Z,6.00
2023-01-23T10:22:36.278Z,7.00
2023-01-23T10:25:16.381Z,7.00
2023-01-23T10:27:48.000Z,6.50
2023-01-23T10:30:26.542Z,7.00
2023-01-23T10:32:59.454Z,6.00
2023-01-23T10:35:45.846Z,6.00
2023-01-23T10:38:31.739Z,6.00
2023-01-23T10:41:15.726Z,6.00
2023-01-23T10:43:52.987Z,6.00
2023-01-23T10:46:36.016Z,7.00
2023-01-23T10:49:04.782Z,5.67
2023-01-23T10:51:39.095Z,4.67
2023-01-23T10:54:30.632Z,5.00
2023-01-23T10:57:17.435Z,6.50
2023-01-23T11:00:17.977Z,6.00
2023-01-23T11:02:46.370Z,7.00
2023-01-23T11:05:50.689Z,9.00
2023-01-23T11:08:27.676Z,6.67
2023-01-23T11:11:16.018Z,7.00
2023-01-23T11:13:46.015Z,9.00
2023-01-23T11:16:23.653Z,10.00
2023-01-23T11:19:18.610Z,8.00
2023-01-23T11:21:56.483Z,10.50
2023-01-23T11:24:40.476Z,10.50
2023-01-23T11:27:17.752Z,9.00
2023-01-23T11:30:04.355Z,10.33
2023-01-23T11:32:48.296Z,9.33
2023-01-23T11:35:20.866Z,9.00
2023-01-23T11:37:49.260Z,10.00
2023-01-23T11:40:20.147Z,7.67
2023-01-23T11:42:48.985Z,8.50
2023-01-23T11:45:34.670Z,7.67
2023-01-23T11:48:09.179Z,8.00
2023-01-23T11:50:54.544Z,8.00
2023-01-23T11:53:42.199Z,9.50
2023-01-23T11:56:11.206Z,7.33
2023-01-23T11:59:09.381Z,8.00
2023-01-23T12:02:02.461Z,8.50
2023-01-23T12:04:42.822Z,7.00
2023-01-23T12:07:17.155Z,8.00
2023-01-23T12:10:13.443Z,6.33
2023-01-23T12:12:45.305Z,8.00
2023-01-23T12:15:19.838Z,7.50
2023-01-23T12:20:43.935Z,6.50
2023-01-23T12:23:27.464Z,8.00
2023-01-23T12:26:25.640Z,6.00
2023-01-23T12:29:18.944Z,5.50
2023-01-23T12:32:21.000Z,7.00
2023-01-23T12:35:17.728Z,5.33
2023-01-23T12:37:58.081Z,7.00
2023-01-23T12:40:38.827Z,7.00
2023-01-23T12:43:24.025Z,6.00
2023-01-23T12:45:59.858Z,6.00
2023-01-23T12:48:35.629Z,6.00
2023-01-23T12:51:21.738Z,6.50
2023-01-23T12:53:55.363Z,6.50
2023-01-23T12:56:33.622Z,5.50
2023-01-23T12:59:36.021Z,7.00
2023-01-23T13:02:24.624Z,6.00
2023-01-23T13:05:31.656Z,5.00
2023-01-23T13:08:10.478Z,4.50
2023-01-23T13:11:11.945Z,5.00
2023-01-23T13:13:41.335Z,6.00
2023-01-23T13:16:15.176Z,3.50
2023-01-23T13:19:19.679Z,4.00
2023-01-23T13:22:27.779Z,3.33
2023-01-23T13:25:13.190Z,5.33
2023-01-23T13:27:59.935Z,6.00
2023-01-23T13:30:35.618Z,5.50
2023-01-23T13:33:06.895Z,4.00
2023-01-23T13:35:45.083Z,4.50
2023-01-23T13:38:22.671Z,6.00
2023-01-23T13:41:08.564Z,6.00
2023-01-23T13:44:04.390Z,5.50
2023-01-23T14:20:19.733Z,3.00
2023-01-23T14:22:48.488Z,4.00
2023-01-23T14:25:18.807Z,3.50
2023-01-23T14:28:06.792Z,4.00
2023-01-23T14:30:35.536Z,3.00
2023-01-23T14:33:12.232Z,4.00
2023-01-23T14:35:43.464Z,3.00
2023-01-23T14:38:30.471Z,4.00
2023-01-23T14:40:59.115Z,4.00
2023-01-23T14:43:30.157Z,3.00
2023-01-23T14:46:05.014Z,3.33
2023-01-23T14:48:37.578Z,4.00
2023-01-23T14:51:17.333Z,4.00
2023-01-23T14:54:00.476Z,3.00
2023-01-23T14:56:39.746Z,4.00
2023-01-23T14:59:22.232Z,2.00
2023-01-23T15:01:55.318Z,2.67
2023-01-23T15:04:26.969Z,4.00
2023-01-23T15:06:59.047Z,4.00
2023-01-23T15:09:39.226Z,4.00
2023-01-23T15:12:18.160Z,3.00
2023-01-23T15:14:47.121Z,3.00
2023-01-23T15:17:19.491Z,3.00
2023-01-23T15:19:59.842Z,3.00
2023-01-23T15:22:29.940Z,2.00
2023-01-23T15:25:26.505Z,2.50
2023-01-23T15:27:54.885Z,2.00
2023-01-23T15:30:46.038Z,2.00
2023-01-23T15:33:32.140Z,1.00
2023-01-23T15:36:29.373Z,4.00
2023-01-23T15:38:59.795Z,2.67
2023-01-23T15:41:48.836Z,2.00
2023-01-23T15:44:20.392Z,2.00
2023-01-23T15:46:49.131Z,4.00
2023-01-23T15:49:25.319Z,3.00
2023-01-23T15:52:03.257Z,2.75
2023-01-23T15:54:36.358Z,4.00
2023-01-23T15:57:07.960Z,4.00
2023-01-23T15:59:37.611Z,3.00
2023-01-23T16:02:12.838Z,2.00
2023-01-23T16:04:45.112Z,3.00
2023-01-23T16:07:25.083Z,3.50
2023-01-23T16:09:55.393Z,2.00
2023-01-23T16:12:28.495Z,2.67
2023-01-23T16:14:57.898Z,2.00
2023-01-23T16:17:26.485Z,4.00
2023-01-23T16:19:54.844Z,2.00
2023-01-23T16:22:27.037Z,3.33
2023-01-23T16:24:56.414Z,3.50
2023-01-23T16:27:27.867Z,3.00
2023-01-23T16:29:56.661Z,2.00
2023-01-23T16:32:25.572Z,3.00
2023-01-23T16:34:54.244Z,3.00
2023-01-23T16:37:22.819Z,3.00
2023-01-23T16:39:51.303Z,1.00
2023-01-23T16:42:25.413Z,4.00
2023-01-23T16:44:53.901Z,1.00
2023-01-23T16:47:22.536Z,3.00
2023-01-23T16:49:52.923Z,3.00
2023-01-23T16:52:25.236Z,4.00
2023-01-23T16:54:54.578Z,4.00
2023-01-23T16:57:23.571Z,4.00
2023-01-23T16:59:52.571Z,3.00
2023-01-23T17:02:26.876Z,4.00
2023-01-23T17:04:55.503Z,2.50
2023-01-23T17:07:24.070Z,3.00
2023-01-23T17:09:52.693Z,1.00
2023-01-23T17:12:27.986Z,3.00
2023-01-23T17:14:57.293Z,3.00
2023-01-23T17:17:32.837Z,3.67
2023-01-23T17:20:02.240Z,3.00
2023-01-23T17:22:35.330Z,2.33
2023-01-23T17:25:04.330Z,3.00
2023-01-23T17:27:44.176Z,4.00
2023-01-23T17:30:19.038Z,3.00
2023-01-23T17:32:50.860Z,3.00
2023-01-23T17:35:28.241Z,2.00
2023-01-23T17:37:59.399Z,3.00
2023-01-23T17:40:28.817Z,2.00
2023-01-23T17:42:57.272Z,4.00
2023-01-23T17:45:27.444Z,2.00
2023-01-23T17:47:56.285Z,2.00
2023-01-23T17:50:26.521Z,4.00
2023-01-23T17:52:55.295Z,2.00
2023-01-23T17:55:28.497Z,2.50
2023-01-23T17:57:56.883Z,3.00
2023-01-23T18:00:27.389Z,3.00
2023-01-23T18:02:58.733Z,3.00
2023-01-23T18:05:27.664Z,1.00
2023-01-23T18:07:56.329Z,2.00
2023-01-23T18:10:28.905Z,3.00
2023-01-23T18:13:09.262Z,3.00
2023-01-23T18:16:02.529Z,3.00
2023-01-23T18:18:33.353Z,3.00
2023-01-23T18:21:03.224Z,3.00
2023-01-23T18:23:35.096Z,2.00
2023-01-23T18:26:34.554Z,2.00
2023-01-23T18:29:54.787Z,3.00
2023-01-23T18:33:06.578Z,2.00
2023-01-23T18:36:01.565Z,2.00
2023-01-23T18:38:42.008Z,3.00
2023-01-23T18:41:27.979Z,2.00
2023-01-23T18:43:57.910Z,1.00
2023-01-23T18:46:28.242Z,2.50
2023-01-23T18:48:57.135Z,2.00
2023-01-23T18:51:34.619Z,3.33
2023-01-23T18:54:31.057Z,2.50
2023-01-23T18:57:21.348Z,2.67
2023-01-23T19:00:17.687Z,3.00
2023-01-23T19:02:55.549Z,3.00
2023-01-23T19:05:32.917Z,1.50
2023-01-23T19:08:02.591Z,2.00
2023-01-23T19:10:47.565Z,2.00
2023-01-23T19:13:21.993Z,2.00
2023-01-23T19:16:24.412Z,2.50
2023-01-23T19:19:15.792Z,2.00
2023-01-23T19:21:48.153Z,2.00
2023-01-23T19:24:19.881Z,2.00
2023-01-23T19:26:50.368Z,2.00
2023-01-23T19:29:22.751Z,4.00
2023-01-23T19:32:05.050Z,1.00
2023-01-23T19:34:34.712Z,1.50
2023-01-23T19:37:03.926Z,2.00
2023-01-23T19:39:32.525Z,2.67
2023-01-23T19:42:01.308Z,2.50
2023-01-23T19:44:30.600Z,2.33
2023-01-23T19:46:59.455Z,2.00
2023-01-23T19:49:27.992Z,1.00
2023-01-23T19:51:56.968Z,1.50
2023-01-23T19:54:25.336Z,2.00
2023-01-23T19:56:53.820Z,2.00
2023-01-23T19:59:22.313Z,2.00
2023-01-23T20:01:52.620Z,3.00
2023-01-23T20:04:23.425Z,2.33
2023-01-23T20:06:54.412Z,2.00
2023-01-23T20:09:22.813Z,2.00
2023-01-23T20:11:52.529Z,2.00
2023-01-23T20:14:22.409Z,2.00
2023-01-23T20:16:50.947Z,1.00
2023-01-23T20:19:19.781Z,1.67
2023-01-23T20:21:48.745Z,2.00
2023-01-23T20:24:17.529Z,0.00
2023-01-23T20:26:46.762Z,2.00
2023-01-23T20:29:15.351Z,2.50
2023-01-23T20:31:43.757Z,2.00
2023-01-23T20:34:12.422Z,2.50
2023-01-23T20:36:40.694Z,3.00
2023-01-23T20:39:10.507Z,2.00
2023-01-23T20:41:39.296Z,2.00
2023-01-23T20:44:07.676Z,2.00
2023-01-23T20:46:36.160Z,2.00
2023-01-23T20:49:04.634Z,1.00
2023-01-23T20:51:33.236Z,4.50
2023-01-23T20:54:01.703Z,2.00
2023-01-23T20:56:30.398Z,3.00
2023-01-23T20:59:17.301Z,2.00
2023-01-23T21:02:04.854Z,2.00
2023-01-23T21:04:35.535Z,2.50
2023-01-23T21:07:04.661Z,2.00
2023-01-23T21:09:33.055Z,2.75
2023-01-23T21:12:01.558Z,2.67
2023-01-23T21:14:30.514Z,2.00
2023-01-23T21:16:59.208Z,1.00
2023-01-23T21:19:28.370Z,2.00
2023-01-23T21:21:56.985Z,2.00
2023-01-23T21:24:26.595Z,1.00
2023-01-23T21:26:55.185Z,0.50
2023-01-23T21:29:23.659Z,2.00
2023-01-23T21:31:52.119Z,3.00
2023-01-23T21:34:20.723Z,3.00
2023-01-23T21:36:49.518Z,2.00
2023-01-23T21:39:18.829Z,2.00
2023-01-23T21:41:47.197Z,2.00
2023-01-23T21:44:15.585Z,2.00
2023-01-23T21:46:44.337Z,2.00
2023-01-23T21:49:12.844Z,2.00
2023-01-23T21:51:41.743Z,2.00
2023-01-23T21:54:10.228Z,0.00
2023-01-23T21:56:38.803Z,3.00
2023-01-23T21:59:07.288Z,1.00
2023-01-23T22:01:36.261Z,2.00
2023-01-23T22:04:11.252Z,1.67
2023-01-23T22:06:42.959Z,2.00
2023-01-23T22:09:16.265Z,2.00
2023-01-23T22:11:45.623Z,2.00
2023-01-23T22:14:13.953Z,2.00
2023-01-23T22:16:50.747Z,0.00
2023-01-23T22:19:24.598Z,3.00
2023-01-23T22:21:55.328Z,3.00
2023-01-23T22:24:23.780Z,1.00
2023-01-23T22:26:52.648Z,2.00
2023-01-23T22:29:23.205Z,2.50
2023-01-23T22:31:52.481Z,1.00
2023-01-23T22:34:21.167Z,2.25
2023-01-23T22:36:49.642Z,1.67
2023-01-23T22:39:20.044Z,2.00
2023-01-23T22:41:50.518Z,2.00
2023-01-23T22:44:19.279Z,1.33
2023-01-23T22:46:50.797Z,2.00
2023-01-23T22:49:19.415Z,2.00
2023-01-23T22:51:48.409Z,2.00
2023-01-23T22:54:16.689Z,2.00
2023-01-23T22:56:45.168Z,3.00
2023-01-23T22:59:13.649Z,2.00
2023-01-23T23:01:42.038Z,2.00
2023-01-23T23:04:10.413Z,1.50
2023-01-23T23:06:38.888Z,0.00
2023-01-23T23:09:07.373Z,3.00
2023-01-23T23:11:37.485Z,1.50
2023-01-23T23:14:05.776Z,2.00
2023-01-23T23:16:34.272Z,2.00
2023-01-23T23:19:04.010Z,2.00
2023-01-23T23:21:36.285Z,2.00
2023-01-23T23:24:07.272Z,2.00
2023-01-23T23:26:35.962Z,2.00
2023-01-23T23:29:04.755Z,2.33
2023-01-23T23:31:33.233Z,2.00
2023-01-23T23:34:02.129Z,3.00
2023-01-23T23:36:30.397Z,3.00
2023-01-23T23:38:59.288Z,2.00
2023-01-23T23:41:27.873Z,2.00
2023-01-23T23:43:56.154Z,3.00
2023-01-23T23:46:24.630Z,2.00
2023-01-23T23:48:53.252Z,2.00
2023-01-23T23:51:23.237Z,2.00
2023-01-23T23:53:51.507Z,3.33
2023-01-23T23:56:28.189Z,2.00
2023-01-23T23:58:56.987Z,2.00
